sensor_id;sensor_type;location;lat;lon;timestamp;P1;durP1;ratioP1;P2;durP2;ratioP2
9102;SDS011;4587;51.434;6.788;2023-03-01T00:01:07;10.03;;;7.73;;
9102;SDS011;4587;51.434;6.788;2023-03-01T00:03:37;12.57;;;8.47;;
9102;SDS011;4587;51.434;6.788;2023-03-01T00:06:03;11.53;;;8.10;;
9102;SDS011;4587;51.434;6.788;2023-03-01T00:08:29;11.50;;;8.20;;
9102;SDS011;4587;51.434;6.788;2023-03-01T00:11:15;11.97;;;8.10;;
9102;SDS011;4587;51.434;6.788;2023-03-01T00:13:53;11.47;;;8.17;;
9102;SDS011;4587;51.434;6.788;2023-03-01T00:16:21;12.57;;;8.10;;
9102;SDS011;4587;51.434;6.788;2023-03-01T00:18:48;10.17;;;7.90;;
9102;SDS011;4587;51.434;6.788;2023-03-01T00:21:15;12.60;;;8.47;;
9102;SDS011;4587;51.434;6.788;2023-03-01T00:23:41;13.50;;;8.13;;
9102;SDS011;4587;51.434;6.788;2023-03-01T00:26:07;12.60;;;8.43;;
9102;SDS011;4587;51.434;6.788;2023-03-01T00:28:35;14.77;;;9.07;;
9102;SDS011;4587;51.434;6.788;2023-03-01T00:31:17;12.17;;;8.83;;
9102;SDS011;4587;51.434;6.788;2023-03-01T00:33:45;11.10;;;8.23;;
9102;SDS011;4587;51.434;6.788;2023-03-01T00:36:11;15.30;;;9.23;;
9102;SDS011;4587;51.434;6.788;2023-03-01T00:38:39;11.57;;;8.87;;
9102;SDS011;4587;51.434;6.788;2023-03-01T00:41:07;9.77;;;8.43;;
9102;SDS011;4587;51.434;6.788;2023-03-01T00:43:34;11.10;;;8.27;;
9102;SDS011;4587;51.434;6.788;2023-03-01T00:46:08;12.40;;;8.50;;
9102;SDS011;4587;51.434;6.788;2023-03-01T00:48:38;12.57;;;8.43;;
9102;SDS011;4587;51.434;6.788;2023-03-01T00:51:05;12.23;;;8.50;;
9102;SDS011;4587;51.434;6.788;2023-03-01T00:53:36;11.97;;;8.80;;
9102;SDS011;4587;51.434;6.788;2023-03-01T00:56:02;11.30;;;8.37;;
9102;SDS011;4587;51.434;6.788;2023-03-01T00:58:29;11.53;;;8.30;;
9102;SDS011;4587;51.434;6.788;2023-03-01T01:00:54;11.20;;;7.90;;
9102;SDS011;4587;51.434;6.788;2023-03-01T01:03:20;9.30;;;8.30;;
9102;SDS011;4587;51.434;6.788;2023-03-01T01:05:47;10.43;;;8.20;;
9102;SDS011;4587;51.434;6.788;2023-03-01T01:08:12;11.33;;;8.57;;
9102;SDS011;4587;51.434;6.788;2023-03-01T01:10:38;11.27;;;8.67;;
9102;SDS011;4587;51.434;6.788;2023-03-01T01:13:03;12.73;;;8.33;;
9102;SDS011;4587;51.434;6.788;2023-03-01T01:15:31;11.77;;;8.63;;
9102;SDS011;4587;51.434;6.788;2023-03-01T01:17:59;12.93;;;8.90;;
9102;SDS011;4587;51.434;6.788;2023-03-01T01:20:25;11.53;;;8.60;;
9102;SDS011;4587;51.434;6.788;2023-03-01T01:22:51;12.73;;;8.10;;
9102;SDS011;4587;51.434;6.788;2023-03-01T01:25:17;10.57;;;8.20;;
9102;SDS011;4587;51.434;6.788;2023-03-01T01:27:43;9.47;;;8.23;;
9102;SDS011;4587;51.434;6.788;2023-03-01T01:30:08;12.97;;;8.90;;
9102;SDS011;4587;51.434;6.788;2023-03-01T01:32:35;10.93;;;8.07;;
9102;SDS011;4587;51.434;6.788;2023-03-01T01:35:00;10.83;;;8.20;;
9102;SDS011;4587;51.434;6.788;2023-03-01T01:37:26;10.73;;;8.20;;
9102;SDS011;4587;51.434;6.788;2023-03-01T01:39:56;11.13;;;8.43;;
9102;SDS011;4587;51.434;6.788;2023-03-01T01:42:23;10.33;;;8.57;;
9102;SDS011;4587;51.434;6.788;2023-03-01T01:45:15;11.97;;;8.47;;
9102;SDS011;4587;51.434;6.788;2023-03-01T01:47:55;11.57;;;7.87;;
9102;SDS011;4587;51.434;6.788;2023-03-01T01:50:25;11.17;;;8.40;;
9102;SDS011;4587;51.434;6.788;2023-03-01T01:52:51;9.83;;;8.53;;
9102;SDS011;4587;51.434;6.788;2023-03-01T01:55:21;10.40;;;8.30;;
9102;SDS011;4587;51.434;6.788;2023-03-01T01:57:53;12.07;;;7.97;;
9102;SDS011;4587;51.434;6.788;2023-03-01T02:00:25;10.40;;;8.27;;
9102;SDS011;4587;51.434;6.788;2023-03-01T02:02:56;11.17;;;8.07;;
9102;SDS011;4587;51.434;6.788;2023-03-01T02:05:32;12.30;;;9.07;;
9102;SDS011;4587;51.434;6.788;2023-03-01T02:08:19;11.80;;;8.70;;
9102;SDS011;4587;51.434;6.788;2023-03-01T02:10:48;14.47;;;8.70;;
9102;SDS011;4587;51.434;6.788;2023-03-01T02:13:15;13.90;;;8.67;;
9102;SDS011;4587;51.434;6.788;2023-03-01T02:15:40;16.43;;;9.53;;
9102;SDS011;4587;51.434;6.788;2023-03-01T02:18:09;13.23;;;8.33;;
9102;SDS011;4587;51.434;6.788;2023-03-01T02:23:13;19.17;;;8.63;;
9102;SDS011;4587;51.434;6.788;2023-03-01T02:28:28;16.13;;;8.47;;
9102;SDS011;4587;51.434;6.788;2023-03-01T02:30:58;15.60;;;8.30;;
9102;SDS011;4587;51.434;6.788;2023-03-01T02:33:42;13.33;;;8.30;;
9102;SDS011;4587;51.434;6.788;2023-03-01T02:36:26;15.87;;;8.70;;
9102;SDS011;4587;51.434;6.788;2023-03-01T02:38:57;15.73;;;9.03;;
9102;SDS011;4587;51.434;6.788;2023-03-01T02:41:26;13.43;;;8.90;;
9102;SDS011;4587;51.434;6.788;2023-03-01T02:43:55;16.23;;;9.43;;
9102;SDS011;4587;51.434;6.788;2023-03-01T02:46:22;13.87;;;9.40;;
9102;SDS011;4587;51.434;6.788;2023-03-01T02:48:51;13.57;;;9.63;;
9102;SDS011;4587;51.434;6.788;2023-03-01T02:54:31;14.73;;;9.20;;
9102;SDS011;4587;51.434;6.788;2023-03-01T02:57:11;14.50;;;10.00;;
9102;SDS011;4587;51.434;6.788;2023-03-01T02:59:38;14.20;;;9.27;;
9102;SDS011;4587;51.434;6.788;2023-03-01T03:02:06;14.53;;;9.37;;
9102;SDS011;4587;51.434;6.788;2023-03-01T03:04:32;12.87;;;9.33;;
9102;SDS011;4587;51.434;6.788;2023-03-01T03:06:58;11.33;;;9.77;;
9102;SDS011;4587;51.434;6.788;2023-03-01T03:09:23;12.00;;;9.40;;
9102;SDS011;4587;51.434;6.788;2023-03-01T03:11:49;11.60;;;9.17;;
9102;SDS011;4587;51.434;6.788;2023-03-01T03:14:15;13.90;;;8.93;;
9102;SDS011;4587;51.434;6.788;2023-03-01T03:16:42;12.07;;;9.40;;
9102;SDS011;4587;51.434;6.788;2023-03-01T03:19:12;11.10;;;9.57;;
9102;SDS011;4587;51.434;6.788;2023-03-01T03:21:39;13.10;;;9.13;;
9102;SDS011;4587;51.434;6.788;2023-03-01T03:24:04;10.80;;;8.77;;
9102;SDS011;4587;51.434;6.788;2023-03-01T03:26:31;12.33;;;9.00;;
9102;SDS011;4587;51.434;6.788;2023-03-01T03:28:57;11.47;;;9.27;;
9102;SDS011;4587;51.434;6.788;2023-03-01T03:31:23;14.17;;;9.80;;
9102;SDS011;4587;51.434;6.788;2023-03-01T03:33:49;13.07;;;9.50;;
9102;SDS011;4587;51.434;6.788;2023-03-01T03:36:18;12.60;;;9.57;;
9102;SDS011;4587;51.434;6.788;2023-03-01T03:38:46;12.23;;;9.53;;
9102;SDS011;4587;51.434;6.788;2023-03-01T03:41:12;11.20;;;9.53;;
9102;SDS011;4587;51.434;6.788;2023-03-01T03:43:39;11.27;;;9.10;;
9102;SDS011;4587;51.434;6.788;2023-03-01T03:46:05;11.90;;;9.70;;
9102;SDS011;4587;51.434;6.788;2023-03-01T03:48:39;13.13;;;10.00;;
9102;SDS011;4587;51.434;6.788;2023-03-01T03:51:06;11.57;;;9.53;;
9102;SDS011;4587;51.434;6.788;2023-03-01T03:53:35;11.97;;;9.63;;
9102;SDS011;4587;51.434;6.788;2023-03-01T03:56:01;12.00;;;9.67;;
9102;SDS011;4587;51.434;6.788;2023-03-01T03:58:26;11.57;;;9.10;;
9102;SDS011;4587;51.434;6.788;2023-03-01T04:00:53;11.57;;;9.33;;
9102;SDS011;4587;51.434;6.788;2023-03-01T04:03:21;12.50;;;9.37;;
9102;SDS011;4587;51.434;6.788;2023-03-01T04:05:48;12.43;;;9.57;;
9102;SDS011;4587;51.434;6.788;2023-03-01T04:08:18;13.00;;;9.27;;
9102;SDS011;4587;51.434;6.788;2023-03-01T04:10:46;14.27;;;9.70;;
9102;SDS011;4587;51.434;6.788;2023-03-01T04:13:14;11.27;;;8.77;;
9102;SDS011;4587;51.434;6.788;2023-03-01T04:15:45;11.13;;;9.27;;
9102;SDS011;4587;51.434;6.788;2023-03-01T04:18:16;12.50;;;9.47;;
9102;SDS011;4587;51.434;6.788;2023-03-01T04:20:43;15.17;;;10.27;;
9102;SDS011;4587;51.434;6.788;2023-03-01T04:23:11;11.93;;;9.90;;
9102;SDS011;4587;51.434;6.788;2023-03-01T04:25:42;12.50;;;9.60;;
9102;SDS011;4587;51.434;6.788;2023-03-01T04:28:11;12.67;;;9.40;;
9102;SDS011;4587;51.434;6.788;2023-03-01T04:30:37;12.77;;;9.70;;
9102;SDS011;4587;51.434;6.788;2023-03-01T04:33:06;12.77;;;9.20;;
9102;SDS011;4587;51.434;6.788;2023-03-01T04:35:33;14.40;;;10.13;;
9102;SDS011;4587;51.434;6.788;2023-03-01T04:37:59;12.03;;;10.27;;
9102;SDS011;4587;51.434;6.788;2023-03-01T04:40:25;15.17;;;10.17;;
9102;SDS011;4587;51.434;6.788;2023-03-01T04:42:51;13.87;;;10.03;;
9102;SDS011;4587;51.434;6.788;2023-03-01T04:45:17;13.63;;;9.70;;
9102;SDS011;4587;51.434;6.788;2023-03-01T04:47:43;13.00;;;9.87;;
9102;SDS011;4587;51.434;6.788;2023-03-01T04:50:12;14.40;;;10.80;;
9102;SDS011;4587;51.434;6.788;2023-03-01T04:52:40;14.87;;;10.27;;
9102;SDS011;4587;51.434;6.788;2023-03-01T04:55:06;11.83;;;9.77;;
9102;SDS011;4587;51.434;6.788;2023-03-01T04:57:32;13.00;;;10.13;;
9102;SDS011;4587;51.434;6.788;2023-03-01T04:59:58;13.67;;;10.27;;
9102;SDS011;4587;51.434;6.788;2023-03-01T05:02:24;15.53;;;10.60;;
9102;SDS011;4587;51.434;6.788;2023-03-01T05:04:49;17.23;;;10.33;;
9102;SDS011;4587;51.434;6.788;2023-03-01T05:07:15;14.20;;;11.07;;
9102;SDS011;4587;51.434;6.788;2023-03-01T05:09:45;16.40;;;11.73;;
9102;SDS011;4587;51.434;6.788;2023-03-01T05:12:11;15.37;;;10.77;;
9102;SDS011;4587;51.434;6.788;2023-03-01T05:14:37;15.33;;;10.97;;
9102;SDS011;4587;51.434;6.788;2023-03-01T05:17:03;15.67;;;11.37;;
9102;SDS011;4587;51.434;6.788;2023-03-01T05:19:30;14.27;;;11.63;;
9102;SDS011;4587;51.434;6.788;2023-03-01T05:21:56;14.77;;;11.27;;
9102;SDS011;4587;51.434;6.788;2023-03-01T05:24:32;12.87;;;11.00;;
9102;SDS011;4587;51.434;6.788;2023-03-01T05:26:59;14.17;;;11.30;;
9102;SDS011;4587;51.434;6.788;2023-03-01T05:29:26;13.13;;;10.90;;
9102;SDS011;4587;51.434;6.788;2023-03-01T05:31:56;13.73;;;10.23;;
9102;SDS011;4587;51.434;6.788;2023-03-01T05:34:26;15.13;;;10.43;;
9102;SDS011;4587;51.434;6.788;2023-03-01T05:36:53;14.63;;;10.73;;
9102;SDS011;4587;51.434;6.788;2023-03-01T05:39:20;13.53;;;10.53;;
9102;SDS011;4587;51.434;6.788;2023-03-01T05:41:47;14.63;;;11.10;;
9102;SDS011;4587;51.434;6.788;2023-03-01T05:44:13;14.40;;;10.80;;
9102;SDS011;4587;51.434;6.788;2023-03-01T05:46:39;14.37;;;10.30;;
9102;SDS011;4587;51.434;6.788;2023-03-01T05:49:05;13.97;;;10.63;;
9102;SDS011;4587;51.434;6.788;2023-03-01T05:51:30;13.67;;;10.70;;
9102;SDS011;4587;51.434;6.788;2023-03-01T05:53:57;13.70;;;11.00;;
9102;SDS011;4587;51.434;6.788;2023-03-01T05:56:22;13.10;;;10.87;;
9102;SDS011;4587;51.434;6.788;2023-03-01T05:58:48;14.37;;;10.70;;
9102;SDS011;4587;51.434;6.788;2023-03-01T06:01:14;17.33;;;11.33;;
9102;SDS011;4587;51.434;6.788;2023-03-01T06:03:40;14.10;;;11.20;;
9102;SDS011;4587;51.434;6.788;2023-03-01T06:06:06;16.23;;;11.37;;
9102;SDS011;4587;51.434;6.788;2023-03-01T06:08:31;14.50;;;10.77;;
9102;SDS011;4587;51.434;6.788;2023-03-01T06:10:57;15.17;;;11.33;;
9102;SDS011;4587;51.434;6.788;2023-03-01T06:13:23;13.13;;;10.73;;
9102;SDS011;4587;51.434;6.788;2023-03-01T06:15:49;14.00;;;10.47;;
9102;SDS011;4587;51.434;6.788;2023-03-01T06:18:14;14.70;;;10.87;;
9102;SDS011;4587;51.434;6.788;2023-03-01T06:20:40;14.77;;;10.23;;
9102;SDS011;4587;51.434;6.788;2023-03-01T06:23:06;15.83;;;10.77;;
9102;SDS011;4587;51.434;6.788;2023-03-01T06:25:31;14.93;;;10.90;;
9102;SDS011;4587;51.434;6.788;2023-03-01T06:27:57;14.67;;;10.47;;
9102;SDS011;4587;51.434;6.788;2023-03-01T06:30:24;12.97;;;10.00;;
9102;SDS011;4587;51.434;6.788;2023-03-01T06:32:50;13.63;;;9.60;;
9102;SDS011;4587;51.434;6.788;2023-03-01T06:35:17;14.20;;;10.83;;
9102;SDS011;4587;51.434;6.788;2023-03-01T06:37:43;12.43;;;9.90;;
9102;SDS011;4587;51.434;6.788;2023-03-01T06:40:10;13.17;;;10.53;;
9102;SDS011;4587;51.434;6.788;2023-03-01T06:42:37;13.37;;;10.80;;
9102;SDS011;4587;51.434;6.788;2023-03-01T06:45:05;13.00;;;9.90;;
9102;SDS011;4587;51.434;6.788;2023-03-01T06:47:32;12.07;;;10.13;;
9102;SDS011;4587;51.434;6.788;2023-03-01T06:49:58;17.93;;;10.50;;
9102;SDS011;4587;51.434;6.788;2023-03-01T06:52:25;14.07;;;10.30;;
9102;SDS011;4587;51.434;6.788;2023-03-01T06:54:50;13.30;;;10.60;;
9102;SDS011;4587;51.434;6.788;2023-03-01T06:57:16;13.97;;;11.00;;
9102;SDS011;4587;51.434;6.788;2023-03-01T06:59:42;14.43;;;11.07;;
9102;SDS011;4587;51.434;6.788;2023-03-01T07:02:11;17.03;;;10.87;;
9102;SDS011;4587;51.434;6.788;2023-03-01T07:04:37;15.40;;;10.83;;
9102;SDS011;4587;51.434;6.788;2023-03-01T07:07:03;12.77;;;10.00;;
9102;SDS011;4587;51.434;6.788;2023-03-01T07:09:29;14.87;;;10.27;;
9102;SDS011;4587;51.434;6.788;2023-03-01T07:11:55;12.80;;;10.10;;
9102;SDS011;4587;51.434;6.788;2023-03-01T07:14:21;14.27;;;10.17;;
9102;SDS011;4587;51.434;6.788;2023-03-01T07:16:49;14.47;;;10.00;;
9102;SDS011;4587;51.434;6.788;2023-03-01T07:19:15;12.20;;;9.83;;
9102;SDS011;4587;51.434;6.788;2023-03-01T07:21:40;12.97;;;10.70;;
9102;SDS011;4587;51.434;6.788;2023-03-01T07:24:06;13.60;;;10.63;;
9102;SDS011;4587;51.434;6.788;2023-03-01T07:26:32;13.47;;;10.00;;
9102;SDS011;4587;51.434;6.788;2023-03-01T07:29:05;14.23;;;10.37;;
9102;SDS011;4587;51.434;6.788;2023-03-01T07:31:31;11.97;;;9.57;;
9102;SDS011;4587;51.434;6.788;2023-03-01T07:33:57;15.03;;;9.40;;
9102;SDS011;4587;51.434;6.788;2023-03-01T07:36:23;13.83;;;9.53;;
9102;SDS011;4587;51.434;6.788;2023-03-01T07:38:49;14.13;;;9.57;;
9102;SDS011;4587;51.434;6.788;2023-03-01T07:41:15;11.10;;;9.40;;
9102;SDS011;4587;51.434;6.788;2023-03-01T07:43:41;14.23;;;9.80;;
9102;SDS011;4587;51.434;6.788;2023-03-01T07:46:07;12.57;;;9.80;;
9102;SDS011;4587;51.434;6.788;2023-03-01T07:48:32;12.10;;;9.70;;
9102;SDS011;4587;51.434;6.788;2023-03-01T07:51:02;13.87;;;9.53;;
9102;SDS011;4587;51.434;6.788;2023-03-01T07:53:30;12.63;;;9.53;;
9102;SDS011;4587;51.434;6.788;2023-03-01T07:56:11;12.83;;;9.83;;
9102;SDS011;4587;51.434;6.788;2023-03-01T07:58:39;11.63;;;10.20;;
9102;SDS011;4587;51.434;6.788;2023-03-01T08:01:07;11.73;;;9.73;;
9102;SDS011;4587;51.434;6.788;2023-03-01T08:03:34;11.23;;;9.77;;
9102;SDS011;4587;51.434;6.788;2023-03-01T08:06:01;11.53;;;9.30;;
9102;SDS011;4587;51.434;6.788;2023-03-01T08:08:28;10.13;;;8.67;;
9102;SDS011;4587;51.434;6.788;2023-03-01T08:10:57;11.23;;;9.30;;
9102;SDS011;4587;51.434;6.788;2023-03-01T08:13:24;13.03;;;9.70;;
9102;SDS011;4587;51.434;6.788;2023-03-01T08:15:50;14.07;;;9.50;;
9102;SDS011;4587;51.434;6.788;2023-03-01T08:18:17;12.77;;;9.60;;
9102;SDS011;4587;51.434;6.788;2023-03-01T08:20:43;14.13;;;9.37;;
9102;SDS011;4587;51.434;6.788;2023-03-01T08:23:09;14.53;;;9.70;;
9102;SDS011;4587;51.434;6.788;2023-03-01T08:25:35;14.37;;;9.30;;
9102;SDS011;4587;51.434;6.788;2023-03-01T08:28:01;11.77;;;9.00;;
9102;SDS011;4587;51.434;6.788;2023-03-01T08:30:26;15.57;;;9.30;;
9102;SDS011;4587;51.434;6.788;2023-03-01T08:32:52;12.40;;;9.83;;
9102;SDS011;4587;51.434;6.788;2023-03-01T08:35:18;10.73;;;8.70;;
9102;SDS011;4587;51.434;6.788;2023-03-01T08:37:45;12.67;;;8.87;;
9102;SDS011;4587;51.434;6.788;2023-03-01T08:40:11;13.20;;;8.57;;
9102;SDS011;4587;51.434;6.788;2023-03-01T08:42:38;10.97;;;8.73;;
9102;SDS011;4587;51.434;6.788;2023-03-01T08:45:04;14.80;;;8.97;;
9102;SDS011;4587;51.434;6.788;2023-03-01T08:47:30;10.73;;;8.07;;
9102;SDS011;4587;51.434;6.788;2023-03-01T08:49:58;11.93;;;8.90;;
9102;SDS011;4587;51.434;6.788;2023-03-01T08:52:24;11.77;;;8.80;;
9102;SDS011;4587;51.434;6.788;2023-03-01T08:54:50;9.70;;;7.67;;
9102;SDS011;4587;51.434;6.788;2023-03-01T08:57:16;9.90;;;8.57;;
9102;SDS011;4587;51.434;6.788;2023-03-01T08:59:42;13.27;;;8.30;;
9102;SDS011;4587;51.434;6.788;2023-03-01T09:02:12;11.23;;;8.77;;
9102;SDS011;4587;51.434;6.788;2023-03-01T09:04:40;9.07;;;7.97;;
9102;SDS011;4587;51.434;6.788;2023-03-01T09:07:06;11.63;;;8.40;;
9102;SDS011;4587;51.434;6.788;2023-03-01T09:09:32;9.50;;;8.40;;
9102;SDS011;4587;51.434;6.788;2023-03-01T09:11:58;11.83;;;7.87;;
9102;SDS011;4587;51.434;6.788;2023-03-01T09:14:23;12.83;;;8.13;;
9102;SDS011;4587;51.434;6.788;2023-03-01T09:16:49;10.30;;;7.37;;
9102;SDS011;4587;51.434;6.788;2023-03-01T09:19:15;8.73;;;7.60;;
9102;SDS011;4587;51.434;6.788;2023-03-01T09:21:41;10.60;;;7.93;;
9102;SDS011;4587;51.434;6.788;2023-03-01T09:24:16;11.20;;;8.20;;
9102;SDS011;4587;51.434;6.788;2023-03-01T09:26:43;11.47;;;8.30;;
9102;SDS011;4587;51.434;6.788;2023-03-01T09:29:11;9.80;;;7.70;;
9102;SDS011;4587;51.434;6.788;2023-03-01T09:31:37;9.90;;;7.80;;
9102;SDS011;4587;51.434;6.788;2023-03-01T09:34:03;11.07;;;8.13;;
9102;SDS011;4587;51.434;6.788;2023-03-01T09:36:30;10.63;;;7.60;;
9102;SDS011;4587;51.434;6.788;2023-03-01T09:38:56;8.40;;;7.50;;
9102;SDS011;4587;51.434;6.788;2023-03-01T09:41:42;9.70;;;7.57;;
9102;SDS011;4587;51.434;6.788;2023-03-01T09:46:56;10.07;;;7.63;;
9102;SDS011;4587;51.434;6.788;2023-03-01T09:49:25;11.63;;;8.10;;
9102;SDS011;4587;51.434;6.788;2023-03-01T09:54:29;11.67;;;8.00;;
9102;SDS011;4587;51.434;6.788;2023-03-01T10:00:00;12.80;;;7.50;;
9102;SDS011;4587;51.434;6.788;2023-03-01T10:05:19;11.77;;;7.83;;
9102;SDS011;4587;51.434;6.788;2023-03-01T10:10:50;10.33;;;8.13;;
9102;SDS011;4587;51.434;6.788;2023-03-01T10:13:26;9.97;;;8.20;;
9102;SDS011;4587;51.434;6.788;2023-03-01T10:15:54;10.60;;;8.20;;
9102;SDS011;4587;51.434;6.788;2023-03-01T10:18:31;9.57;;;7.70;;
9102;SDS011;4587;51.434;6.788;2023-03-01T10:20:58;12.93;;;7.93;;
9102;SDS011;4587;51.434;6.788;2023-03-01T10:23:27;10.60;;;7.80;;
9102;SDS011;4587;51.434;6.788;2023-03-01T10:31:03;10.60;;;7.60;;
9102;SDS011;4587;51.434;6.788;2023-03-01T10:33:34;9.63;;;7.53;;
9102;SDS011;4587;51.434;6.788;2023-03-01T10:36:02;8.87;;;7.67;;
9102;SDS011;4587;51.434;6.788;2023-03-01T10:38:30;9.73;;;8.03;;
9102;SDS011;4587;51.434;6.788;2023-03-01T10:41:11;9.73;;;7.13;;
9102;SDS011;4587;51.434;6.788;2023-03-01T10:46:46;11.43;;;7.60;;
9102;SDS011;4587;51.434;6.788;2023-03-01T10:51:42;10.73;;;7.30;;
9102;SDS011;4587;51.434;6.788;2023-03-01T10:54:20;13.37;;;7.57;;
9102;SDS011;4587;51.434;6.788;2023-03-01T10:56:53;11.53;;;7.57;;
9102;SDS011;4587;51.434;6.788;2023-03-01T10:59:28;10.30;;;7.50;;
9102;SDS011;4587;51.434;6.788;2023-03-01T11:02:14;9.30;;;6.60;;
9102;SDS011;4587;51.434;6.788;2023-03-01T11:04:58;8.53;;;7.13;;
9102;SDS011;4587;51.434;6.788;2023-03-01T11:07:25;9.13;;;7.03;;
9102;SDS011;4587;51.434;6.788;2023-03-01T11:09:50;12.77;;;7.00;;
9102;SDS011;4587;51.434;6.788;2023-03-01T11:12:16;9.23;;;6.93;;
9102;SDS011;4587;51.434;6.788;2023-03-01T11:14:46;10.67;;;6.53;;
9102;SDS011;4587;51.434;6.788;2023-03-01T11:20:15;9.47;;;6.40;;
9102;SDS011;4587;51.434;6.788;2023-03-01T11:22:51;9.27;;;6.27;;
9102;SDS011;4587;51.434;6.788;2023-03-01T11:25:20;7.70;;;6.10;;
9102;SDS011;4587;51.434;6.788;2023-03-01T11:27:51;8.10;;;6.53;;
9102;SDS011;4587;51.434;6.788;2023-03-01T11:30:20;11.33;;;5.90;;
9102;SDS011;4587;51.434;6.788;2023-03-01T11:35:42;7.97;;;6.30;;
9102;SDS011;4587;51.434;6.788;2023-03-01T11:38:16;7.57;;;6.03;;
9102;SDS011;4587;51.434;6.788;2023-03-01T11:49:04;8.57;;;6.10;;
9102;SDS011;4587;51.434;6.788;2023-03-01T11:51:58;8.50;;;6.20;;
9102;SDS011;4587;51.434;6.788;2023-03-01T12:08:45;8.83;;;6.20;;
9102;SDS011;4587;51.434;6.788;2023-03-01T12:11:36;6.03;;;5.43;;
9102;SDS011;4587;51.434;6.788;2023-03-01T12:14:14;7.77;;;6.23;;
9102;SDS011;4587;51.434;6.788;2023-03-01T12:16:57;8.43;;;6.07;;
9102;SDS011;4587;51.434;6.788;2023-03-01T12:19:45;12.10;;;6.43;;
9102;SDS011;4587;51.434;6.788;2023-03-01T12:33:08;8.27;;;6.10;;
9102;SDS011;4587;51.434;6.788;2023-03-01T12:35:58;9.20;;;5.93;;
9102;SDS011;4587;51.434;6.788;2023-03-01T12:41:55;7.13;;;5.90;;
9102;SDS011;4587;51.434;6.788;2023-03-01T12:44:56;8.23;;;6.00;;
9102;SDS011;4587;51.434;6.788;2023-03-01T12:50:46;7.17;;;6.20;;
9102;SDS011;4587;51.434;6.788;2023-03-01T12:53:24;9.70;;;6.50;;
9102;SDS011;4587;51.434;6.788;2023-03-01T12:55:56;8.80;;;6.80;;
9102;SDS011;4587;51.434;6.788;2023-03-01T12:58:36;10.97;;;6.50;;
9102;SDS011;4587;51.434;6.788;2023-03-01T13:01:26;7.83;;;6.50;;
9102;SDS011;4587;51.434;6.788;2023-03-01T13:04:13;8.03;;;6.20;;
9102;SDS011;4587;51.434;6.788;2023-03-01T13:07:11;9.17;;;6.63;;
9102;SDS011;4587;51.434;6.788;2023-03-01T13:10:08;7.80;;;5.87;;
9102;SDS011;4587;51.434;6.788;2023-03-01T13:13:11;9.40;;;6.60;;
9102;SDS011;4587;51.434;6.788;2023-03-01T13:15:39;8.10;;;6.63;;
9102;SDS011;4587;51.434;6.788;2023-03-01T13:33:49;7.63;;;6.10;;
9102;SDS011;4587;51.434;6.788;2023-03-01T13:44:18;8.63;;;6.63;;
9102;SDS011;4587;51.434;6.788;2023-03-01T13:46:45;8.37;;;6.40;;
9102;SDS011;4587;51.434;6.788;2023-03-01T13:49:18;7.70;;;6.40;;
9102;SDS011;4587;51.434;6.788;2023-03-01T13:51:47;10.00;;;6.27;;
9102;SDS011;4587;51.434;6.788;2023-03-01T13:54:14;10.30;;;6.73;;
9102;SDS011;4587;51.434;6.788;2023-03-01T13:56:45;8.07;;;6.30;;
9102;SDS011;4587;51.434;6.788;2023-03-01T13:59:15;8.90;;;7.00;;
9102;SDS011;4587;51.434;6.788;2023-03-01T14:01:43;8.33;;;6.53;;
9102;SDS011;4587;51.434;6.788;2023-03-01T14:04:42;7.67;;;6.37;;
9102;SDS011;4587;51.434;6.788;2023-03-01T14:07:09;8.77;;;6.40;;
9102;SDS011;4587;51.434;6.788;2023-03-01T14:09:47;10.90;;;6.60;;
9102;SDS011;4587;51.434;6.788;2023-03-01T14:12:22;10.80;;;7.17;;
9102;SDS011;4587;51.434;6.788;2023-03-01T14:17:52;9.23;;;7.07;;
9102;SDS011;4587;51.434;6.788;2023-03-01T14:20:32;9.43;;;7.20;;
9102;SDS011;4587;51.434;6.788;2023-03-01T14:23:09;9.20;;;7.33;;
9102;SDS011;4587;51.434;6.788;2023-03-01T14:25:37;8.70;;;7.20;;
9102;SDS011;4587;51.434;6.788;2023-03-01T14:28:05;9.77;;;7.30;;
9102;SDS011;4587;51.434;6.788;2023-03-01T14:30:42;12.47;;;7.13;;
9102;SDS011;4587;51.434;6.788;2023-03-01T14:35:52;9.07;;;7.10;;
9102;SDS011;4587;51.434;6.788;2023-03-01T14:41:07;11.40;;;7.37;;
9102;SDS011;4587;51.434;6.788;2023-03-01T14:43:36;11.73;;;7.47;;
9102;SDS011;4587;51.434;6.788;2023-03-01T14:46:05;10.07;;;7.33;;
9102;SDS011;4587;51.434;6.788;2023-03-01T14:48:31;10.23;;;7.53;;
9102;SDS011;4587;51.434;6.788;2023-03-01T14:50:57;9.00;;;7.43;;
9102;SDS011;4587;51.434;6.788;2023-03-01T14:53:25;11.57;;;7.90;;
9102;SDS011;4587;51.434;6.788;2023-03-01T14:55:54;10.43;;;7.60;;
9102;SDS011;4587;51.434;6.788;2023-03-01T14:58:23;14.77;;;7.83;;
9102;SDS011;4587;51.434;6.788;2023-03-01T15:01:22;11.23;;;7.60;;
9102;SDS011;4587;51.434;6.788;2023-03-01T15:03:42;11.60;;;7.90;;
9102;SDS011;4587;51.434;6.788;2023-03-01T15:06:17;11.33;;;8.00;;
9102;SDS011;4587;51.434;6.788;2023-03-01T15:08:46;10.57;;;8.60;;
9102;SDS011;4587;51.434;6.788;2023-03-01T15:11:19;9.73;;;7.77;;
9102;SDS011;4587;51.434;6.788;2023-03-01T15:13:55;10.30;;;8.40;;
9102;SDS011;4587;51.434;6.788;2023-03-01T15:18:58;10.47;;;7.90;;
9102;SDS011;4587;51.434;6.788;2023-03-01T15:21:36;12.83;;;7.97;;
9102;SDS011;4587;51.434;6.788;2023-03-01T15:24:06;13.30;;;8.03;;
9102;SDS011;4587;51.434;6.788;2023-03-01T15:29:23;11.97;;;8.17;;
9102;SDS011;4587;51.434;6.788;2023-03-01T15:31:56;11.97;;;8.03;;
9102;SDS011;4587;51.434;6.788;2023-03-01T15:34:34;11.13;;;7.43;;
9102;SDS011;4587;51.434;6.788;2023-03-01T15:37:04;9.80;;;7.13;;
9102;SDS011;4587;51.434;6.788;2023-03-01T15:39:55;9.57;;;7.67;;
9102;SDS011;4587;51.434;6.788;2023-03-01T15:47:34;13.57;;;7.43;;
9102;SDS011;4587;51.434;6.788;2023-03-01T15:50:03;10.47;;;7.20;;
9102;SDS011;4587;51.434;6.788;2023-03-01T15:52:32;10.87;;;7.20;;
9102;SDS011;4587;51.434;6.788;2023-03-01T15:55:05;8.87;;;7.30;;
9102;SDS011;4587;51.434;6.788;2023-03-01T15:57:40;12.27;;;7.43;;
9102;SDS011;4587;51.434;6.788;2023-03-01T16:00:08;10.47;;;7.37;;
9102;SDS011;4587;51.434;6.788;2023-03-01T16:02:38;8.20;;;7.30;;
9102;SDS011;4587;51.434;6.788;2023-03-01T16:05:05;9.00;;;7.20;;
9102;SDS011;4587;51.434;6.788;2023-03-01T16:07:52;9.33;;;7.33;;
9102;SDS011;4587;51.434;6.788;2023-03-01T16:10:18;10.70;;;7.40;;
9102;SDS011;4587;51.434;6.788;2023-03-01T16:12:44;10.50;;;7.03;;
9102;SDS011;4587;51.434;6.788;2023-03-01T16:15:16;10.97;;;7.37;;
9102;SDS011;4587;51.434;6.788;2023-03-01T16:17:45;10.17;;;7.57;;
9102;SDS011;4587;51.434;6.788;2023-03-01T16:20:11;9.30;;;7.30;;
9102;SDS011;4587;51.434;6.788;2023-03-01T16:22:40;11.03;;;7.13;;
9102;SDS011;4587;51.434;6.788;2023-03-01T16:25:10;9.63;;;7.47;;
9102;SDS011;4587;51.434;6.788;2023-03-01T16:27:37;7.60;;;6.43;;
9102;SDS011;4587;51.434;6.788;2023-03-01T16:30:04;12.47;;;7.10;;
9102;SDS011;4587;51.434;6.788;2023-03-01T16:32:30;8.87;;;6.77;;
9102;SDS011;4587;51.434;6.788;2023-03-01T16:34:57;8.90;;;6.90;;
9102;SDS011;4587;51.434;6.788;2023-03-01T16:37:22;10.93;;;6.90;;
9102;SDS011;4587;51.434;6.788;2023-03-01T16:39:48;9.37;;;6.43;;
9102;SDS011;4587;51.434;6.788;2023-03-01T16:42:16;9.87;;;7.40;;
9102;SDS011;4587;51.434;6.788;2023-03-01T16:44:42;9.50;;;7.10;;
9102;SDS011;4587;51.434;6.788;2023-03-01T16:47:08;8.67;;;6.83;;
9102;SDS011;4587;51.434;6.788;2023-03-01T16:49:34;9.77;;;7.13;;
9102;SDS011;4587;51.434;6.788;2023-03-01T16:51:59;9.07;;;6.77;;
9102;SDS011;4587;51.434;6.788;2023-03-01T16:54:25;9.27;;;6.93;;
9102;SDS011;4587;51.434;6.788;2023-03-01T16:56:50;10.77;;;7.03;;
9102;SDS011;4587;51.434;6.788;2023-03-01T16:59:16;9.93;;;6.67;;
9102;SDS011;4587;51.434;6.788;2023-03-01T17:01:44;10.77;;;7.03;;
9102;SDS011;4587;51.434;6.788;2023-03-01T17:04:12;9.53;;;7.00;;
9102;SDS011;4587;51.434;6.788;2023-03-01T17:06:38;9.73;;;6.80;;
9102;SDS011;4587;51.434;6.788;2023-03-01T17:09:04;13.93;;;7.80;;
9102;SDS011;4587;51.434;6.788;2023-03-01T17:11:29;11.30;;;7.30;;
9102;SDS011;4587;51.434;6.788;2023-03-01T17:13:55;9.40;;;7.13;;
9102;SDS011;4587;51.434;6.788;2023-03-01T17:16:21;12.63;;;7.67;;
9102;SDS011;4587;51.434;6.788;2023-03-01T17:18:47;9.17;;;7.40;;